الصفحة الرئيسية
METAR-TAF:

METAR-TAF

مطار :

مطار ديوري حماني

نيامي, النيجر

دائرة عرض: 13-29N, خط طول: 002-10E, ارتفاع: 223 متر

مراقبة الطقس الحالي

تاريخ ووقت الإصدار 45 دقيقة قبل الساعة 04:00UTC
ريح 5 عقدة من الشمال/الشمال الشرقي
درجة الحرارة 19°درجة مئوية
الرطوبة 19%
ضغط 1014 hPa
الرؤية 10 كم أو أكثر
الغيوم لا تقل 1500 م ولا وجود لمزنة ركامية السحاب الأسود

METAR: DRRN 140400Z 03005KT CAVOK 19/M05 Q1014 NOSIG

زمن: 05:45 (04:45 UTC)

توقعات

تاريخ ووقت الإصدار 5ساعات و 45 دقيقة قبل الساعة 23:00UTC
التوقعات صالحة من14 الساعة 00 UTC إلى 15 الساعة 06 UTC
ريح 8 عقدة من الشرق
الرؤية: 8000 متر
مؤقت
من 14 الساعة 06 UTC إلى 14 الساعة 09 UTC
الرؤية: 4000 متر
غبار
مؤقت
من 14 الساعة 09 UTC إلى 14 الساعة 12 UTC
ريح 18 عقدة من الشرق
الرؤية: 3500 متر
هبوب الغبار
مؤقت
من 14 الساعة 17 UTC إلى 14 الساعة 20 UTC
الرؤية: 4000 متر
غبار

TAF: DRRN 132300Z 1400/1506 08008KT 8000 NSC TEMPO 1406/1409 4000 DU TEMPO 1409/1412 10018KT 3500 BLDU TEMPO 1417/1420 4000 DU

أرصاد الطقس والتوقعات من أكثر من 4000 مطار (تقارير الطقس للمطار METAR والتنبؤ بالطقس بالمطارTAF).

المحطات المتاحة هي النقط الصفراء والحمراء على الخريطة.

حرك المؤشر فوق النقطة لمعرفة اسم المحطة.

ثم انقر لمعرفة أرصاد وتوقعات الطقس.

لتغيير الخارطة: اضغط على الأزرار الخضراء مع رمز الصليب الأسود للتكبير. على الزر الأخضر مع شرطة للتصغير، أو على الأسهم الخضراء للخرائط المجاورة.


METAR-TAF: